sensor_id;sensor_type;location;lat;lon;timestamp;temperature;humidity
11908;DHT22;6014;47.690;9.130;2023-09-30T00:00:17;16.40;99.90
11908;DHT22;6014;47.690;9.130;2023-09-30T00:02:47;16.40;99.90
11908;DHT22;6014;47.690;9.130;2023-09-30T00:05:16;16.30;99.90
11908;DHT22;6014;47.690;9.130;2023-09-30T00:07:46;16.30;99.90
11908;DHT22;6014;47.690;9.130;2023-09-30T00:10:14;16.30;99.90
11908;DHT22;6014;47.690;9.130;2023-09-30T00:12:42;16.30;99.90
11908;DHT22;6014;47.690;9.130;2023-09-30T00:15:19;16.20;99.90
11908;DHT22;6014;47.690;9.130;2023-09-30T00:17:49;16.20;99.90
11908;DHT22;6014;47.690;9.130;2023-09-30T00:20:17;16.10;99.90
11908;DHT22;6014;47.690;9.130;2023-09-30T00:22:45;16.00;99.90
11908;DHT22;6014;47.690;9.130;2023-09-30T00:25:13;16.10;99.90
11908;DHT22;6014;47.690;9.130;2023-09-30T00:27:41;15.90;99.90
11908;DHT22;6014;47.690;9.130;2023-09-30T00:30:10;15.90;99.90
11908;DHT22;6014;47.690;9.130;2023-09-30T00:32:38;15.90;99.90
11908;DHT22;6014;47.690;9.130;2023-09-30T00:35:09;15.90;99.90
11908;DHT22;6014;47.690;9.130;2023-09-30T00:37:38;16.00;99.90
11908;DHT22;6014;47.690;9.130;2023-09-30T00:40:07;16.10;99.90
11908;DHT22;6014;47.690;9.130;2023-09-30T00:42:39;16.00;99.90
11908;DHT22;6014;47.690;9.130;2023-09-30T00:45:08;16.00;99.90
11908;DHT22;6014;47.690;9.130;2023-09-30T00:47:37;16.10;99.90
11908;DHT22;6014;47.690;9.130;2023-09-30T00:50:07;16.10;99.90
11908;DHT22;6014;47.690;9.130;2023-09-30T00:52:38;16.10;99.90
11908;DHT22;6014;47.690;9.130;2023-09-30T00:55:07;16.10;99.90
11908;DHT22;6014;47.690;9.130;2023-09-30T00:57:38;16.10;99.90
11908;DHT22;6014;47.690;9.130;2023-09-30T01:00:08;16.20;99.90
11908;DHT22;6014;47.690;9.130;2023-09-30T01:02:39;16.10;99.90
11908;DHT22;6014;47.690;9.130;2023-09-30T01:05:09;16.10;99.90
11908;DHT22;6014;47.690;9.130;2023-09-30T01:07:37;16.10;99.90
11908;DHT22;6014;47.690;9.130;2023-09-30T01:10:06;16.00;99.90
11908;DHT22;6014;47.690;9.130;2023-09-30T01:12:34;16.00;99.90
11908;DHT22;6014;47.690;9.130;2023-09-30T01:15:03;15.90;99.90
11908;DHT22;6014;47.690;9.130;2023-09-30T01:17:34;16.00;99.90
11908;DHT22;6014;47.690;9.130;2023-09-30T01:20:04;16.00;99.90
11908;DHT22;6014;47.690;9.130;2023-09-30T01:22:35;16.00;99.90
11908;DHT22;6014;47.690;9.130;2023-09-30T01:25:03;16.00;99.90
11908;DHT22;6014;47.690;9.130;2023-09-30T01:27:32;16.00;99.90
11908;DHT22;6014;47.690;9.130;2023-09-30T01:30:00;15.90;99.90
11908;DHT22;6014;47.690;9.130;2023-09-30T01:32:28;15.90;99.90
11908;DHT22;6014;47.690;9.130;2023-09-30T01:34:56;15.80;99.90
11908;DHT22;6014;47.690;9.130;2023-09-30T01:37:26;15.80;99.90
11908;DHT22;6014;47.690;9.130;2023-09-30T01:39:56;15.70;99.90
11908;DHT22;6014;47.690;9.130;2023-09-30T01:42:24;15.70;99.90
11908;DHT22;6014;47.690;9.130;2023-09-30T01:44:53;15.70;99.90
11908;DHT22;6014;47.690;9.130;2023-09-30T01:47:21;15.70;99.90
11908;DHT22;6014;47.690;9.130;2023-09-30T01:49:49;15.80;99.90
11908;DHT22;6014;47.690;9.130;2023-09-30T01:52:17;15.80;99.90
11908;DHT22;6014;47.690;9.130;2023-09-30T01:54:45;15.80;99.90
11908;DHT22;6014;47.690;9.130;2023-09-30T01:57:15;15.80;99.90
11908;DHT22;6014;47.690;9.130;2023-09-30T01:59:43;15.80;99.90
11908;DHT22;6014;47.690;9.130;2023-09-30T02:02:11;15.70;99.90
11908;DHT22;6014;47.690;9.130;2023-09-30T02:04:39;15.80;99.90
11908;DHT22;6014;47.690;9.130;2023-09-30T02:07:07;15.70;99.90
11908;DHT22;6014;47.690;9.130;2023-09-30T02:09:35;15.80;99.90
11908;DHT22;6014;47.690;9.130;2023-09-30T02:12:04;15.80;99.90
11908;DHT22;6014;47.690;9.130;2023-09-30T02:14:37;15.80;99.90
11908;DHT22;6014;47.690;9.130;2023-09-30T02:17:06;15.80;99.90
11908;DHT22;6014;47.690;9.130;2023-09-30T02:19:35;15.70;99.90
11908;DHT22;6014;47.690;9.130;2023-09-30T02:22:03;15.70;99.90
11908;DHT22;6014;47.690;9.130;2023-09-30T02:24:32;15.60;99.90
11908;DHT22;6014;47.690;9.130;2023-09-30T02:27:00;15.60;99.90
11908;DHT22;6014;47.690;9.130;2023-09-30T02:29:28;15.70;99.90
11908;DHT22;6014;47.690;9.130;2023-09-30T02:31:58;15.60;99.90
11908;DHT22;6014;47.690;9.130;2023-09-30T02:34:45;15.60;99.90
11908;DHT22;6014;47.690;9.130;2023-09-30T02:37:14;15.50;99.90
11908;DHT22;6014;47.690;9.130;2023-09-30T02:39:42;15.50;99.90
11908;DHT22;6014;47.690;9.130;2023-09-30T02:42:11;15.40;99.90
11908;DHT22;6014;47.690;9.130;2023-09-30T02:44:39;15.30;99.90
11908;DHT22;6014;47.690;9.130;2023-09-30T02:47:08;15.30;99.90
11908;DHT22;6014;47.690;9.130;2023-09-30T02:49:37;15.30;99.90
11908;DHT22;6014;47.690;9.130;2023-09-30T02:52:05;15.40;99.90
11908;DHT22;6014;47.690;9.130;2023-09-30T02:54:34;15.40;99.90
11908;DHT22;6014;47.690;9.130;2023-09-30T02:57:02;15.50;99.90
11908;DHT22;6014;47.690;9.130;2023-09-30T02:59:30;15.40;99.90
11908;DHT22;6014;47.690;9.130;2023-09-30T03:01:58;15.50;99.90
11908;DHT22;6014;47.690;9.130;2023-09-30T03:04:28;15.50;99.90
11908;DHT22;6014;47.690;9.130;2023-09-30T03:06:57;15.60;99.90
11908;DHT22;6014;47.690;9.130;2023-09-30T03:09:25;15.60;99.90
11908;DHT22;6014;47.690;9.130;2023-09-30T03:11:53;15.60;99.90
11908;DHT22;6014;47.690;9.130;2023-09-30T03:14:22;15.50;99.90
11908;DHT22;6014;47.690;9.130;2023-09-30T03:16:51;15.50;99.90
11908;DHT22;6014;47.690;9.130;2023-09-30T03:19:19;15.60;99.90
11908;DHT22;6014;47.690;9.130;2023-09-30T03:21:49;15.60;99.90
11908;DHT22;6014;47.690;9.130;2023-09-30T03:24:17;15.60;99.90
11908;DHT22;6014;47.690;9.130;2023-09-30T03:26:45;15.50;99.90
11908;DHT22;6014;47.690;9.130;2023-09-30T03:29:13;15.50;99.90
11908;DHT22;6014;47.690;9.130;2023-09-30T03:31:41;15.60;99.90
11908;DHT22;6014;47.690;9.130;2023-09-30T03:34:09;15.50;99.90
11908;DHT22;6014;47.690;9.130;2023-09-30T03:36:38;15.60;99.90
11908;DHT22;6014;47.690;9.130;2023-09-30T03:39:09;15.50;99.90
11908;DHT22;6014;47.690;9.130;2023-09-30T03:41:48;15.60;99.90
11908;DHT22;6014;47.690;9.130;2023-09-30T03:44:16;15.50;99.90
11908;DHT22;6014;47.690;9.130;2023-09-30T03:46:44;15.50;99.90
11908;DHT22;6014;47.690;9.130;2023-09-30T03:49:13;15.50;99.90
11908;DHT22;6014;47.690;9.130;2023-09-30T03:51:41;15.60;99.90
11908;DHT22;6014;47.690;9.130;2023-09-30T03:54:10;15.50;99.90
11908;DHT22;6014;47.690;9.130;2023-09-30T03:56:38;15.60;99.90
11908;DHT22;6014;47.690;9.130;2023-09-30T03:59:08;15.50;99.90
11908;DHT22;6014;47.690;9.130;2023-09-30T04:01:37;15.50;99.90
11908;DHT22;6014;47.690;9.130;2023-09-30T04:04:07;15.50;99.90
11908;DHT22;6014;47.690;9.130;2023-09-30T04:06:36;15.60;99.90
11908;DHT22;6014;47.690;9.130;2023-09-30T04:09:06;15.60;99.90
11908;DHT22;6014;47.690;9.130;2023-09-30T04:11:39;15.50;99.90
11908;DHT22;6014;47.690;9.130;2023-09-30T04:14:09;15.60;99.90
11908;DHT22;6014;47.690;9.130;2023-09-30T04:16:38;15.50;99.90
11908;DHT22;6014;47.690;9.130;2023-09-30T04:19:07;15.60;99.90
11908;DHT22;6014;47.690;9.130;2023-09-30T04:21:37;15.60;99.90
11908;DHT22;6014;47.690;9.130;2023-09-30T04:24:06;15.60;99.90
11908;DHT22;6014;47.690;9.130;2023-09-30T04:26:34;15.60;99.90
11908;DHT22;6014;47.690;9.130;2023-09-30T04:29:05;15.60;99.90
11908;DHT22;6014;47.690;9.130;2023-09-30T04:31:33;15.60;99.90
11908;DHT22;6014;47.690;9.130;2023-09-30T04:34:01;15.50;99.90
11908;DHT22;6014;47.690;9.130;2023-09-30T04:36:30;15.50;99.90
11908;DHT22;6014;47.690;9.130;2023-09-30T04:38:58;15.50;99.90
11908;DHT22;6014;47.690;9.130;2023-09-30T04:41:27;15.50;99.90
11908;DHT22;6014;47.690;9.130;2023-09-30T04:43:55;15.50;99.90
11908;DHT22;6014;47.690;9.130;2023-09-30T04:46:25;15.40;99.90
11908;DHT22;6014;47.690;9.130;2023-09-30T04:48:53;15.30;99.90
11908;DHT22;6014;47.690;9.130;2023-09-30T04:51:21;15.30;99.90
11908;DHT22;6014;47.690;9.130;2023-09-30T04:53:52;15.30;99.90
11908;DHT22;6014;47.690;9.130;2023-09-30T04:56:22;15.30;99.90
11908;DHT22;6014;47.690;9.130;2023-09-30T04:58:50;15.30;99.90
11908;DHT22;6014;47.690;9.130;2023-09-30T05:01:18;15.30;99.90
11908;DHT22;6014;47.690;9.130;2023-09-30T05:03:47;15.30;99.90
11908;DHT22;6014;47.690;9.130;2023-09-30T05:06:17;15.30;99.90
11908;DHT22;6014;47.690;9.130;2023-09-30T05:08:45;15.30;99.90
11908;DHT22;6014;47.690;9.130;2023-09-30T05:11:13;15.30;99.90
11908;DHT22;6014;47.690;9.130;2023-09-30T05:13:41;15.30;99.90
11908;DHT22;6014;47.690;9.130;2023-09-30T05:16:09;15.30;99.90
11908;DHT22;6014;47.690;9.130;2023-09-30T05:18:40;15.30;99.90
11908;DHT22;6014;47.690;9.130;2023-09-30T05:21:09;15.30;99.90
11908;DHT22;6014;47.690;9.130;2023-09-30T05:23:37;15.30;99.90
11908;DHT22;6014;47.690;9.130;2023-09-30T05:26:05;15.30;99.90
11908;DHT22;6014;47.690;9.130;2023-09-30T05:28:34;15.40;99.90
11908;DHT22;6014;47.690;9.130;2023-09-30T05:31:02;15.40;99.90
11908;DHT22;6014;47.690;9.130;2023-09-30T05:33:30;15.40;99.90
11908;DHT22;6014;47.690;9.130;2023-09-30T05:35:59;15.50;99.90
11908;DHT22;6014;47.690;9.130;2023-09-30T05:38:31;15.50;99.90
11908;DHT22;6014;47.690;9.130;2023-09-30T05:40:59;15.50;99.90
11908;DHT22;6014;47.690;9.130;2023-09-30T05:43:28;15.50;99.90
11908;DHT22;6014;47.690;9.130;2023-09-30T05:45:56;15.50;99.90
11908;DHT22;6014;47.690;9.130;2023-09-30T05:48:28;15.40;99.90
11908;DHT22;6014;47.690;9.130;2023-09-30T05:50:56;15.50;99.90
11908;DHT22;6014;47.690;9.130;2023-09-30T05:53:24;15.60;99.90
11908;DHT22;6014;47.690;9.130;2023-09-30T05:55:56;15.70;99.90
11908;DHT22;6014;47.690;9.130;2023-09-30T05:58:30;15.80;99.90
11908;DHT22;6014;47.690;9.130;2023-09-30T06:00:58;15.80;99.90
11908;DHT22;6014;47.690;9.130;2023-09-30T06:03:27;15.90;99.90
11908;DHT22;6014;47.690;9.130;2023-09-30T06:05:56;15.80;99.90
11908;DHT22;6014;47.690;9.130;2023-09-30T06:08:27;15.70;99.90
11908;DHT22;6014;47.690;9.130;2023-09-30T06:10:56;15.70;99.90
11908;DHT22;6014;47.690;9.130;2023-09-30T06:13:32;15.80;99.90
11908;DHT22;6014;47.690;9.130;2023-09-30T06:16:00;15.80;99.90
11908;DHT22;6014;47.690;9.130;2023-09-30T06:18:29;15.80;99.90
11908;DHT22;6014;47.690;9.130;2023-09-30T06:20:57;15.70;99.90
11908;DHT22;6014;47.690;9.130;2023-09-30T06:23:25;15.80;99.90
11908;DHT22;6014;47.690;9.130;2023-09-30T06:25:53;15.90;99.90
11908;DHT22;6014;47.690;9.130;2023-09-30T06:28:24;15.90;99.90
11908;DHT22;6014;47.690;9.130;2023-09-30T06:30:53;16.00;99.90
11908;DHT22;6014;47.690;9.130;2023-09-30T06:33:21;16.10;99.90
11908;DHT22;6014;47.690;9.130;2023-09-30T06:35:49;16.20;99.90
11908;DHT22;6014;47.690;9.130;2023-09-30T06:38:18;16.20;99.90
11908;DHT22;6014;47.690;9.130;2023-09-30T06:40:47;16.20;99.90
11908;DHT22;6014;47.690;9.130;2023-09-30T06:43:15;16.20;99.90
11908;DHT22;6014;47.690;9.130;2023-09-30T06:45:45;16.10;99.90
11908;DHT22;6014;47.690;9.130;2023-09-30T06:48:14;16.20;99.90
11908;DHT22;6014;47.690;9.130;2023-09-30T06:50:44;16.20;99.90
11908;DHT22;6014;47.690;9.130;2023-09-30T06:53:12;16.30;99.90
11908;DHT22;6014;47.690;9.130;2023-09-30T06:55:40;16.40;99.90
11908;DHT22;6014;47.690;9.130;2023-09-30T06:58:10;16.50;99.90
11908;DHT22;6014;47.690;9.130;2023-09-30T07:00:40;16.60;99.90
11908;DHT22;6014;47.690;9.130;2023-09-30T07:03:09;16.70;99.90
11908;DHT22;6014;47.690;9.130;2023-09-30T07:05:40;16.70;99.90
11908;DHT22;6014;47.690;9.130;2023-09-30T07:08:08;16.80;99.90
11908;DHT22;6014;47.690;9.130;2023-09-30T07:10:36;16.90;99.90
11908;DHT22;6014;47.690;9.130;2023-09-30T07:13:04;17.00;99.90
11908;DHT22;6014;47.690;9.130;2023-09-30T07:15:33;17.20;99.90
11908;DHT22;6014;47.690;9.130;2023-09-30T07:18:01;17.30;99.90
11908;DHT22;6014;47.690;9.130;2023-09-30T07:20:31;17.20;99.90
11908;DHT22;6014;47.690;9.130;2023-09-30T07:22:59;17.50;99.90
11908;DHT22;6014;47.690;9.130;2023-09-30T07:25:44;18.00;99.90
11908;DHT22;6014;47.690;9.130;2023-09-30T07:28:12;17.90;99.90
11908;DHT22;6014;47.690;9.130;2023-09-30T07:30:40;17.90;99.90
11908;DHT22;6014;47.690;9.130;2023-09-30T07:33:09;18.00;99.90
11908;DHT22;6014;47.690;9.130;2023-09-30T07:35:38;18.00;99.90
11908;DHT22;6014;47.690;9.130;2023-09-30T07:38:06;17.90;99.90
11908;DHT22;6014;47.690;9.130;2023-09-30T07:40:35;18.00;99.90
11908;DHT22;6014;47.690;9.130;2023-09-30T07:43:03;18.00;99.90
11908;DHT22;6014;47.690;9.130;2023-09-30T07:45:31;18.00;99.90
11908;DHT22;6014;47.690;9.130;2023-09-30T07:48:00;18.00;99.90
11908;DHT22;6014;47.690;9.130;2023-09-30T07:50:30;18.00;99.90
11908;DHT22;6014;47.690;9.130;2023-09-30T07:53:00;17.90;99.90
11908;DHT22;6014;47.690;9.130;2023-09-30T07:55:28;18.00;99.90
11908;DHT22;6014;47.690;9.130;2023-09-30T07:57:56;18.10;99.90
11908;DHT22;6014;47.690;9.130;2023-09-30T08:00:26;18.00;99.90
11908;DHT22;6014;47.690;9.130;2023-09-30T08:02:54;18.30;99.90
11908;DHT22;6014;47.690;9.130;2023-09-30T08:05:22;18.30;99.90
11908;DHT22;6014;47.690;9.130;2023-09-30T08:07:50;18.50;99.90
11908;DHT22;6014;47.690;9.130;2023-09-30T08:10:19;18.90;99.90
11908;DHT22;6014;47.690;9.130;2023-09-30T08:12:47;19.30;99.90
11908;DHT22;6014;47.690;9.130;2023-09-30T08:15:17;19.30;99.90
11908;DHT22;6014;47.690;9.130;2023-09-30T08:17:45;20.00;99.90
11908;DHT22;6014;47.690;9.130;2023-09-30T08:20:13;20.30;99.90
11908;DHT22;6014;47.690;9.130;2023-09-30T08:22:41;20.60;99.90
11908;DHT22;6014;47.690;9.130;2023-09-30T08:25:10;20.70;99.90
11908;DHT22;6014;47.690;9.130;2023-09-30T08:27:39;20.30;99.90
11908;DHT22;6014;47.690;9.130;2023-09-30T08:30:08;20.00;99.90
11908;DHT22;6014;47.690;9.130;2023-09-30T08:32:37;19.80;99.90
11908;DHT22;6014;47.690;9.130;2023-09-30T08:35:06;19.60;99.90
11908;DHT22;6014;47.690;9.130;2023-09-30T08:37:36;19.80;99.90
11908;DHT22;6014;47.690;9.130;2023-09-30T08:40:05;19.90;99.90
11908;DHT22;6014;47.690;9.130;2023-09-30T08:42:39;20.10;99.90
11908;DHT22;6014;47.690;9.130;2023-09-30T08:45:11;20.20;99.90
11908;DHT22;6014;47.690;9.130;2023-09-30T08:47:42;20.20;99.90
11908;DHT22;6014;47.690;9.130;2023-09-30T08:50:12;20.10;99.90
11908;DHT22;6014;47.690;9.130;2023-09-30T08:52:42;20.20;99.90
11908;DHT22;6014;47.690;9.130;2023-09-30T08:55:12;20.70;99.90
11908;DHT22;6014;47.690;9.130;2023-09-30T08:57:41;20.80;97.90
11908;DHT22;6014;47.690;9.130;2023-09-30T09:00:12;20.60;96.30
11908;DHT22;6014;47.690;9.130;2023-09-30T09:02:41;20.60;96.20
11908;DHT22;6014;47.690;9.130;2023-09-30T09:05:10;20.80;97.30
11908;DHT22;6014;47.690;9.130;2023-09-30T09:07:38;21.00;95.10
11908;DHT22;6014;47.690;9.130;2023-09-30T09:10:30;21.40;94.80
11908;DHT22;6014;47.690;9.130;2023-09-30T09:12:59;21.70;94.30
11908;DHT22;6014;47.690;9.130;2023-09-30T09:15:28;21.90;92.60
11908;DHT22;6014;47.690;9.130;2023-09-30T09:17:57;21.60;92.90
11908;DHT22;6014;47.690;9.130;2023-09-30T09:20:25;21.40;93.60
11908;DHT22;6014;47.690;9.130;2023-09-30T09:22:54;21.30;94.10
11908;DHT22;6014;47.690;9.130;2023-09-30T09:25:24;21.20;93.20
11908;DHT22;6014;47.690;9.130;2023-09-30T09:27:53;21.40;93.30
11908;DHT22;6014;47.690;9.130;2023-09-30T09:30:24;21.50;92.90
11908;DHT22;6014;47.690;9.130;2023-09-30T09:33:00;20.80;92.00
11908;DHT22;6014;47.690;9.130;2023-09-30T09:35:29;20.50;93.00
11908;DHT22;6014;47.690;9.130;2023-09-30T09:38:00;20.80;93.00
11908;DHT22;6014;47.690;9.130;2023-09-30T09:40:29;21.10;91.80
11908;DHT22;6014;47.690;9.130;2023-09-30T09:42:58;20.90;90.60
11908;DHT22;6014;47.690;9.130;2023-09-30T09:45:32;20.80;91.50
11908;DHT22;6014;47.690;9.130;2023-09-30T09:48:01;20.90;91.10
11908;DHT22;6014;47.690;9.130;2023-09-30T09:50:32;21.10;91.40
11908;DHT22;6014;47.690;9.130;2023-09-30T09:53:00;21.00;91.10
11908;DHT22;6014;47.690;9.130;2023-09-30T09:55:29;21.30;90.80
11908;DHT22;6014;47.690;9.130;2023-09-30T09:57:58;21.30;90.60
11908;DHT22;6014;47.690;9.130;2023-09-30T10:00:26;21.50;90.20
11908;DHT22;6014;47.690;9.130;2023-09-30T10:02:58;21.30;90.80
11908;DHT22;6014;47.690;9.130;2023-09-30T10:05:26;21.30;90.90
11908;DHT22;6014;47.690;9.130;2023-09-30T10:08:00;21.20;92.70
11908;DHT22;6014;47.690;9.130;2023-09-30T10:10:30;21.50;92.80
11908;DHT22;6014;47.690;9.130;2023-09-30T10:12:59;21.60;92.30
11908;DHT22;6014;47.690;9.130;2023-09-30T10:15:37;21.30;92.70
11908;DHT22;6014;47.690;9.130;2023-09-30T10:18:10;21.50;92.90
11908;DHT22;6014;47.690;9.130;2023-09-30T10:20:42;21.60;91.00
11908;DHT22;6014;47.690;9.130;2023-09-30T10:23:22;21.50;91.90
11908;DHT22;6014;47.690;9.130;2023-09-30T10:25:53;21.60;92.00
11908;DHT22;6014;47.690;9.130;2023-09-30T10:28:38;21.80;88.80
11908;DHT22;6014;47.690;9.130;2023-09-30T10:31:08;21.80;89.80
11908;DHT22;6014;47.690;9.130;2023-09-30T10:36:40;22.40;88.90
11908;DHT22;6014;47.690;9.130;2023-09-30T10:39:11;22.40;87.90
11908;DHT22;6014;47.690;9.130;2023-09-30T10:41:50;22.30;87.20
11908;DHT22;6014;47.690;9.130;2023-09-30T10:44:33;22.20;88.60
11908;DHT22;6014;47.690;9.130;2023-09-30T10:47:35;22.40;88.60
11908;DHT22;6014;47.690;9.130;2023-09-30T10:53:12;21.90;85.90
11908;DHT22;6014;47.690;9.130;2023-09-30T10:55:41;22.00;84.30
11908;DHT22;6014;47.690;9.130;2023-09-30T10:58:10;22.60;83.60
11908;DHT22;6014;47.690;9.130;2023-09-30T11:00:38;22.70;82.80
11908;DHT22;6014;47.690;9.130;2023-09-30T11:03:11;22.60;82.40
11908;DHT22;6014;47.690;9.130;2023-09-30T11:05:40;22.40;82.10
11908;DHT22;6014;47.690;9.130;2023-09-30T11:08:15;22.70;81.20
11908;DHT22;6014;47.690;9.130;2023-09-30T11:10:47;23.10;81.10
11908;DHT22;6014;47.690;9.130;2023-09-30T11:13:17;23.10;77.00
11908;DHT22;6014;47.690;9.130;2023-09-30T11:15:46;22.80;78.90
11908;DHT22;6014;47.690;9.130;2023-09-30T11:18:15;22.60;79.70
11908;DHT22;6014;47.690;9.130;2023-09-30T11:20:44;22.80;77.50
11908;DHT22;6014;47.690;9.130;2023-09-30T11:23:23;23.10;78.00
11908;DHT22;6014;47.690;9.130;2023-09-30T11:25:51;23.30;77.00
11908;DHT22;6014;47.690;9.130;2023-09-30T11:28:22;22.90;77.50
11908;DHT22;6014;47.690;9.130;2023-09-30T11:30:54;22.80;76.40
11908;DHT22;6014;47.690;9.130;2023-09-30T11:33:22;23.00;77.90
11908;DHT22;6014;47.690;9.130;2023-09-30T11:35:59;23.20;77.00
11908;DHT22;6014;47.690;9.130;2023-09-30T11:38:29;23.60;72.80
11908;DHT22;6014;47.690;9.130;2023-09-30T11:41:02;23.70;72.20
11908;DHT22;6014;47.690;9.130;2023-09-30T11:43:31;23.80;73.40
11908;DHT22;6014;47.690;9.130;2023-09-30T11:46:06;23.90;72.00
11908;DHT22;6014;47.690;9.130;2023-09-30T11:48:36;23.80;69.60
11908;DHT22;6014;47.690;9.130;2023-09-30T11:51:05;23.70;71.30
11908;DHT22;6014;47.690;9.130;2023-09-30T11:53:35;23.70;71.10
11908;DHT22;6014;47.690;9.130;2023-09-30T11:56:03;23.40;69.90
11908;DHT22;6014;47.690;9.130;2023-09-30T11:58:42;23.70;71.20
11908;DHT22;6014;47.690;9.130;2023-09-30T12:01:13;23.60;70.30
11908;DHT22;6014;47.690;9.130;2023-09-30T12:03:41;23.40;71.50
11908;DHT22;6014;47.690;9.130;2023-09-30T12:06:09;23.60;69.60
11908;DHT22;6014;47.690;9.130;2023-09-30T12:08:41;24.00;70.40
11908;DHT22;6014;47.690;9.130;2023-09-30T12:11:09;23.50;67.70
11908;DHT22;6014;47.690;9.130;2023-09-30T12:13:39;23.80;68.50
11908;DHT22;6014;47.690;9.130;2023-09-30T12:16:08;23.50;67.00
11908;DHT22;6014;47.690;9.130;2023-09-30T12:18:36;23.40;66.30
11908;DHT22;6014;47.690;9.130;2023-09-30T12:21:05;23.40;66.60
11908;DHT22;6014;47.690;9.130;2023-09-30T12:23:34;23.50;69.20
11908;DHT22;6014;47.690;9.130;2023-09-30T12:26:04;23.20;68.00
11908;DHT22;6014;47.690;9.130;2023-09-30T12:28:41;23.30;68.50
11908;DHT22;6014;47.690;9.130;2023-09-30T12:31:09;23.30;68.70
11908;DHT22;6014;47.690;9.130;2023-09-30T12:33:38;23.00;70.60
11908;DHT22;6014;47.690;9.130;2023-09-30T12:36:06;23.40;71.40
11908;DHT22;6014;47.690;9.130;2023-09-30T12:38:35;23.90;70.30
11908;DHT22;6014;47.690;9.130;2023-09-30T12:41:04;23.90;68.70
11908;DHT22;6014;47.690;9.130;2023-09-30T12:43:33;23.30;69.10
11908;DHT22;6014;47.690;9.130;2023-09-30T12:46:01;23.60;69.30
11908;DHT22;6014;47.690;9.130;2023-09-30T12:48:29;23.70;68.70
11908;DHT22;6014;47.690;9.130;2023-09-30T12:50:57;24.10;69.40
11908;DHT22;6014;47.690;9.130;2023-09-30T12:53:26;24.00;69.20
11908;DHT22;6014;47.690;9.130;2023-09-30T12:55:54;24.10;67.20
11908;DHT22;6014;47.690;9.130;2023-09-30T12:58:23;23.50;68.70
11908;DHT22;6014;47.690;9.130;2023-09-30T13:00:51;22.80;70.30
11908;DHT22;6014;47.690;9.130;2023-09-30T13:03:33;22.80;73.40
11908;DHT22;6014;47.690;9.130;2023-09-30T13:06:02;23.10;71.60
11908;DHT22;6014;47.690;9.130;2023-09-30T13:08:31;23.90;67.90
11908;DHT22;6014;47.690;9.130;2023-09-30T13:11:00;23.90;69.30
11908;DHT22;6014;47.690;9.130;2023-09-30T13:13:31;23.80;67.10
11908;DHT22;6014;47.690;9.130;2023-09-30T13:16:00;24.00;66.80
11908;DHT22;6014;47.690;9.130;2023-09-30T13:18:29;24.30;63.70
11908;DHT22;6014;47.690;9.130;2023-09-30T13:20:57;24.10;64.60
11908;DHT22;6014;47.690;9.130;2023-09-30T13:23:25;24.10;61.40
11908;DHT22;6014;47.690;9.130;2023-09-30T13:25:54;24.20;61.60
11908;DHT22;6014;47.690;9.130;2023-09-30T13:28:22;23.80;63.40
11908;DHT22;6014;47.690;9.130;2023-09-30T13:30:51;23.60;65.20
11908;DHT22;6014;47.690;9.130;2023-09-30T13:33:19;23.50;64.60
11908;DHT22;6014;47.690;9.130;2023-09-30T13:35:48;23.40;66.20
11908;DHT22;6014;47.690;9.130;2023-09-30T13:38:16;23.50;63.90
11908;DHT22;6014;47.690;9.130;2023-09-30T13:40:44;23.40;64.40
11908;DHT22;6014;47.690;9.130;2023-09-30T13:43:13;23.20;64.10
11908;DHT22;6014;47.690;9.130;2023-09-30T13:46:04;23.70;66.00
11908;DHT22;6014;47.690;9.130;2023-09-30T13:48:34;23.80;64.10
11908;DHT22;6014;47.690;9.130;2023-09-30T13:51:06;24.10;63.40
11908;DHT22;6014;47.690;9.130;2023-09-30T13:53:35;23.70;63.60
11908;DHT22;6014;47.690;9.130;2023-09-30T13:56:03;24.20;63.50
11908;DHT22;6014;47.690;9.130;2023-09-30T13:58:31;24.40;62.40
11908;DHT22;6014;47.690;9.130;2023-09-30T14:00:59;24.10;61.70
11908;DHT22;6014;47.690;9.130;2023-09-30T14:03:29;23.70;65.10
11908;DHT22;6014;47.690;9.130;2023-09-30T14:05:59;23.60;65.00
11908;DHT22;6014;47.690;9.130;2023-09-30T14:08:28;23.70;66.20
11908;DHT22;6014;47.690;9.130;2023-09-30T14:10:57;23.20;65.40
11908;DHT22;6014;47.690;9.130;2023-09-30T14:13:42;22.80;64.70
11908;DHT22;6014;47.690;9.130;2023-09-30T14:16:10;23.10;65.80
11908;DHT22;6014;47.690;9.130;2023-09-30T14:18:40;23.10;65.00
11908;DHT22;6014;47.690;9.130;2023-09-30T14:21:09;22.90;65.00
11908;DHT22;6014;47.690;9.130;2023-09-30T14:23:37;23.20;66.50
11908;DHT22;6014;47.690;9.130;2023-09-30T14:26:06;23.40;64.30
11908;DHT22;6014;47.690;9.130;2023-09-30T14:28:38;23.30;64.80
11908;DHT22;6014;47.690;9.130;2023-09-30T14:31:06;23.30;62.60
11908;DHT22;6014;47.690;9.130;2023-09-30T14:33:34;23.20;62.90
11908;DHT22;6014;47.690;9.130;2023-09-30T14:36:04;22.90;63.00
11908;DHT22;6014;47.690;9.130;2023-09-30T14:38:33;23.20;64.30
11908;DHT22;6014;47.690;9.130;2023-09-30T14:41:06;22.90;64.40
11908;DHT22;6014;47.690;9.130;2023-09-30T14:43:35;22.40;62.80
11908;DHT22;6014;47.690;9.130;2023-09-30T14:46:03;22.40;63.20
11908;DHT22;6014;47.690;9.130;2023-09-30T14:48:31;22.70;65.60
11908;DHT22;6014;47.690;9.130;2023-09-30T14:51:00;22.80;66.20
11908;DHT22;6014;47.690;9.130;2023-09-30T14:53:31;22.90;64.10
11908;DHT22;6014;47.690;9.130;2023-09-30T14:55:59;23.20;66.00
11908;DHT22;6014;47.690;9.130;2023-09-30T14:58:27;23.40;66.20
11908;DHT22;6014;47.690;9.130;2023-09-30T15:00:55;23.40;63.70
11908;DHT22;6014;47.690;9.130;2023-09-30T15:03:24;23.50;63.30
11908;DHT22;6014;47.690;9.130;2023-09-30T15:05:58;23.00;62.80
11908;DHT22;6014;47.690;9.130;2023-09-30T15:08:32;23.30;64.50
11908;DHT22;6014;47.690;9.130;2023-09-30T15:14:08;23.40;64.10
11908;DHT22;6014;47.690;9.130;2023-09-30T15:16:36;23.70;64.10
11908;DHT22;6014;47.690;9.130;2023-09-30T15:19:05;24.00;61.30
11908;DHT22;6014;47.690;9.130;2023-09-30T15:21:33;24.10;60.60
11908;DHT22;6014;47.690;9.130;2023-09-30T15:24:03;24.50;60.40
11908;DHT22;6014;47.690;9.130;2023-09-30T15:26:32;24.60;59.60
11908;DHT22;6014;47.690;9.130;2023-09-30T15:29:01;24.10;59.10
11908;DHT22;6014;47.690;9.130;2023-09-30T15:31:39;23.60;58.00
11908;DHT22;6014;47.690;9.130;2023-09-30T15:34:07;23.20;60.10
11908;DHT22;6014;47.690;9.130;2023-09-30T15:36:37;23.20;62.30
11908;DHT22;6014;47.690;9.130;2023-09-30T15:39:06;23.00;61.40
11908;DHT22;6014;47.690;9.130;2023-09-30T15:41:34;23.10;62.40
11908;DHT22;6014;47.690;9.130;2023-09-30T15:44:11;22.90;62.70
11908;DHT22;6014;47.690;9.130;2023-09-30T15:46:39;22.70;63.50
11908;DHT22;6014;47.690;9.130;2023-09-30T15:49:07;22.70;66.30
11908;DHT22;6014;47.690;9.130;2023-09-30T15:51:40;22.60;64.70
11908;DHT22;6014;47.690;9.130;2023-09-30T15:54:09;22.50;64.40
11908;DHT22;6014;47.690;9.130;2023-09-30T15:57:01;22.10;65.30
11908;DHT22;6014;47.690;9.130;2023-09-30T15:59:30;21.80;66.00
11908;DHT22;6014;47.690;9.130;2023-09-30T16:02:16;21.80;69.40
11908;DHT22;6014;47.690;9.130;2023-09-30T16:04:45;21.70;68.90
11908;DHT22;6014;47.690;9.130;2023-09-30T16:07:13;21.60;71.90
11908;DHT22;6014;47.690;9.130;2023-09-30T16:09:43;21.50;71.00